Time;durP1;ratioP1;P1;durP2;ratioP2;P2;SDS_P1;SDS_P2;PMS_P1;PMS_P2;Temp;Humidity;BMP_temperature;BMP_pressure;BME280_temperature;BME280_humidity;BME280_pressure;Samples;Min_cycle;Max_cycle;Signal;HPM_P1;HPM_P2
2022/01/27 00:02:32;;;;;;;170.95;56.73;;;;;;;-4.17;97.33;100333.88;1702647;84;21088;-68
2022/01/27 00:04:52;;;;;;;97.05;31.77;;;;;;;-4.21;97.11;100328.20;1689398;84;21106;-70
2022/01/27 00:07:10;;;;;;;132.93;37.67;;;;;;;-4.27;96.97;100322.92;1704662;84;21096;-70
2022/01/27 00:09:49;;;;;;;172.43;57.03;;;;;;;-4.33;96.79;100312.46;1706503;83;21260;-68
2022/01/27 00:12:16;;;;;;;197.28;60.67;;;;;;;-4.37;96.65;100315.78;1705581;84;21139;-68
2022/01/27 00:14:45;;;;;;;84.90;29.90;;;;;;;-4.44;96.97;100318.21;1697689;83;21081;-68
2022/01/27 00:17:13;;;;;;;100.07;28.43;;;;;;;-4.48;97.67;100324.09;1693079;84;21014;-66
2022/01/27 00:19:37;;;;;;;83.85;27.62;;;;;;;-4.58;97.41;100318.65;1693799;83;21082;-66
2022/01/27 00:22:05;;;;;;;61.90;21.67;;;;;;;-4.69;97.36;100323.52;1693631;84;21132;-66
2022/01/27 00:24:32;;;;;;;59.60;23.47;;;;;;;-4.77;97.52;100322.42;1693798;84;21137;-67
2022/01/27 00:26:59;;;;;;;176.57;57.13;;;;;;;-4.85;97.41;100317.94;1693538;84;21009;-66
2022/01/27 00:29:25;;;;;;;144.10;42.73;;;;;;;-4.92;97.40;100319.02;1693485;84;21069;-69
2022/01/27 00:31:52;;;;;;;169.43;57.93;;;;;;;-4.98;98.07;100328.69;1648147;85;21592;-67
2022/01/27 00:34:18;;;;;;;409.57;131.30;;;;;;;-5.05;98.39;100324.20;1665548;85;21100;-66
2022/01/27 00:36:44;;;;;;;422.80;137.60;;;;;;;-5.10;98.50;100325.78;1665554;86;21336;-67
2022/01/27 00:39:11;;;;;;;311.07;105.33;;;;;;;-5.15;98.44;100324.78;1665073;86;21080;-66
2022/01/27 00:41:39;;;;;;;392.10;138.20;;;;;;;-5.19;98.87;100324.22;1665328;86;21093;-67
2022/01/27 00:44:05;;;;;;;708.97;258.70;;;;;;;-5.23;99.16;100318.53;1665227;86;21113;-65
2022/01/27 00:46:35;;;;;;;90.00;33.83;;;;;;;-5.28;99.33;100320.55;1665515;86;21055;-66
2022/01/27 00:49:00;;;;;;;117.57;37.13;;;;;;;-5.31;99.45;100321.75;1665153;85;22016;-67
2022/01/27 00:51:31;;;;;;;165.20;62.73;;;;;;;-5.38;99.23;100310.84;1665064;86;21641;-69
2022/01/27 00:54:05;;;;;;;152.90;55.80;;;;;;;-5.45;99.25;100306.34;1665079;86;21579;-68
2022/01/27 00:56:36;;;;;;;125.53;42.33;;;;;;;-5.49;99.48;100307.08;1663754;86;21062;-68
2022/01/27 00:59:02;;;;;;;64.63;24.87;;;;;;;-5.53;99.78;100303.95;1662981;86;21540;-69
2022/01/27 01:01:25;;;;;;;68.57;24.67;;;;;;;-5.56;99.87;100306.44;1679249;84;21125;-69
2022/01/27 01:03:52;;;;;;;64.73;23.60;;;;;;;-5.62;99.70;100304.95;1675708;84;21608;-68
2022/01/27 01:35:12;;;;;;;391.27;121.77;;;;;;;-6.04;100.00;100311.78;1685571;85;21115;-68
2022/01/27 01:37:43;;;;;;;613.07;212.27;;;;;;;-6.05;100.00;100308.73;1687558;83;21071;-68
2022/01/27 01:40:16;;;;;;;341.50;105.58;;;;;;;-6.05;100.00;100307.45;1686931;83;22177;-69
2022/01/27 01:42:43;;;;;;;170.77;59.33;;;;;;;-6.01;100.00;100308.02;1686097;85;21632;-69
2022/01/27 01:45:16;;;;;;;202.87;68.80;;;;;;;-6.02;100.00;100302.45;1685799;85;21079;-69
2022/01/27 01:47:47;;;;;;;182.33;61.03;;;;;;;-6.03;100.00;100300.69;1686111;85;21099;-68
2022/01/27 01:50:14;;;;;;;;;;;;;;;-6.02;100.00;100287.06;1687569;85;21126;-68
2022/01/27 01:52:42;;;;;;;150.97;50.27;;;;;;;-5.99;100.00;100294.84;1685971;85;21126;-70
2022/01/27 01:55:10;;;;;;;128.73;43.80;;;;;;;-6.03;100.00;100287.87;1690040;84;21164;-70
2022/01/27 01:57:37;;;;;;;125.20;43.07;;;;;;;-6.00;100.00;100290.55;1685168;85;21351;-67
2022/01/27 02:00:07;;;;;;;125.17;42.80;;;;;;;-6.00;100.00;100287.98;1685455;83;21234;-67
2022/01/27 02:02:35;;;;;;;174.80;53.97;;;;;;;-5.99;100.00;100288.02;1689984;84;21063;-68
2022/01/27 02:05:02;;;;;;;368.17;114.20;;;;;;;-6.00;100.00;100293.98;1689932;84;21151;-69
2022/01/27 02:07:44;;;;;;;254.10;83.40;;;;;;;-6.00;100.00;100300.81;1688552;84;21128;-67
2022/01/27 02:10:29;;;;;;;599.17;216.40;;;;;;;-5.99;100.00;100301.26;1716822;83;21092;-69
2022/01/27 02:18:09;;;;;;;203.67;69.67;;;;;;;-5.92;100.00;100282.22;1733262;82;21195;-68
2022/01/27 02:20:39;;;;;;;179.70;63.33;;;;;;;-5.89;100.00;100275.03;1733256;82;21053;-68
2022/01/27 02:23:09;;;;;;;157.93;56.23;;;;;;;-5.87;100.00;100277.23;1733449;82;21798;-69
2022/01/27 02:25:36;;;;;;;157.40;52.37;;;;;;;-5.85;100.00;100276.02;1733711;82;21600;-70
2022/01/27 02:28:04;;;;;;;165.67;57.53;;;;;;;-5.81;100.00;100280.42;1698194;82;21628;-70
2022/01/27 02:30:31;;;;;;;166.23;56.47;;;;;;;-5.81;100.00;100265.03;1689247;83;21711;-70
2022/01/27 02:32:59;;;;;;;281.73;94.53;;;;;;;-5.81;100.00;100277.44;1688962;82;21057;-71
2022/01/27 02:35:31;;;;;;;335.60;106.60;;;;;;;-5.81;100.00;100271.03;1689316;84;21105;-69
2022/01/27 02:37:58;;;;;;;503.57;171.27;;;;;;;-5.80;100.00;100268.91;1688926;83;21090;-70
2022/01/27 02:40:34;;;;;;;486.27;164.00;;;;;;;-5.79;100.00;100262.97;1720334;82;21037;-70
2022/01/27 02:43:03;;;;;;;523.80;179.93;;;;;;;-5.77;100.00;100265.17;1732771;82;21105;-69
2022/01/27 02:45:57;;;;;;;650.40;229.73;;;;;;;-5.77;100.00;100258.77;1712788;82;22269;-70
2022/01/27 02:48:23;;;;;;;178.87;65.90;;;;;;;-5.75;100.00;100259.69;1733293;82;21085;-70
2022/01/27 02:50:50;;;;;;;164.77;58.83;;;;;;;-5.73;100.00;100262.28;1733221;82;21019;-69
2022/01/27 02:53:16;;;;;;;151.70;53.87;;;;;;;-5.72;100.00;100257.20;1733640;82;21073;-69
2022/01/27 02:55:43;;;;;;;139.03;49.77;;;;;;;-5.72;100.00;100261.47;1733294;82;22139;-68
2022/01/27 02:58:10;;;;;;;134.83;48.23;;;;;;;-5.70;100.00;100263.67;1733718;82;21565;-68
2022/01/27 03:00:37;;;;;;;113.73;39.60;;;;;;;-5.69;100.00;100267.55;1733253;82;21049;-70
2022/01/27 03:03:04;;;;;;;126.40;44.00;;;;;;;-5.70;100.00;100260.69;1733244;82;21553;-69
2022/01/27 03:05:31;;;;;;;121.63;41.13;;;;;;;-5.67;100.00;100273.16;1733575;82;21033;-69
2022/01/27 03:07:57;;;;;;;166.03;53.33;;;;;;;-5.65;100.00;100275.36;1733537;82;21137;-69
2022/01/27 03:10:30;;;;;;;232.53;81.33;;;;;;;-5.64;100.00;100271.95;1733131;82;21432;-69
2022/01/27 03:12:59;;;;;;;175.07;62.53;;;;;;;-5.61;100.00;100268.19;1733669;82;21027;-65
2022/01/27 03:15:28;;;;;;;318.23;104.07;;;;;;;-5.57;100.00;100267.47;1713712;82;21124;-71
2022/01/27 03:17:54;;;;;;;164.23;57.80;;;;;;;-5.58;100.00;100255.05;1739149;82;21153;-71
2022/01/27 03:20:21;;;;;;;395.77;130.37;;;;;;;-5.59;100.00;100256.28;1740401;82;21796;-69
2022/01/27 03:22:48;;;;;;;686.97;247.23;;;;;;;-5.60;100.00;100245.58;1739951;82;21018;-69
2022/01/27 03:25:15;;;;;;;410.80;141.87;;;;;;;-5.59;100.00;100251.15;1740145;82;21132;-69
2022/01/27 03:27:46;;;;;;;273.10;97.60;;;;;;;-5.59;100.00;100251.15;1740010;82;21069;-68
2022/01/27 03:30:12;;;;;;;185.93;66.33;;;;;;;-5.59;100.00;100247.30;1739818;82;21125;-69
2022/01/27 03:32:39;;;;;;;177.40;61.37;;;;;;;-5.59;100.00;100252.05;1740109;82;21055;-69
2022/01/27 03:35:07;;;;;;;163.67;58.33;;;;;;;-5.58;100.00;100250.34;1749317;81;21533;-66
2022/01/27 03:37:33;;;;;;;173.77;60.33;;;;;;;-5.58;100.00;100241.36;1754924;81;21091;-68
2022/01/27 03:40:00;;;;;;;193.57;69.50;;;;;;;-5.56;100.00;100238.01;1754973;81;21057;-65
2022/01/27 03:42:27;;;;;;;173.87;61.13;;;;;;;-5.53;100.00;100238.51;1755039;81;21022;-64
2022/01/27 03:44:54;;;;;;;154.37;55.53;;;;;;;-5.52;100.00;100232.16;1755100;81;21840;-65
2022/01/27 03:47:21;;;;;;;150.10;54.07;;;;;;;-5.50;100.00;100230.89;1753049;81;21564;-63
2022/01/27 03:49:47;;;;;;;146.37;51.70;;;;;;;-5.50;100.00;100227.04;1688526;84;21125;-65
2022/01/27 03:52:14;;;;;;;176.50;60.57;;;;;;;-5.49;100.00;100226.23;1682710;84;21152;-65
2022/01/27 03:54:41;;;;;;;270.87;89.37;;;;;;;-5.50;100.00;100212.92;1699373;84;21767;-64
2022/01/27 03:57:07;;;;;;;529.33;183.73;;;;;;;-5.50;100.00;100209.08;1689231;84;21830;-64
2022/01/27 03:59:34;;;;;;;328.83;116.17;;;;;;;-5.45;100.00;100210.10;1689154;84;21119;-66
2022/01/27 04:02:04;;;;;;;146.83;53.47;;;;;;;-5.42;100.00;100213.17;1689315;84;21151;-66
2022/01/27 04:04:29;;;;;;;172.87;61.57;;;;;;;-5.40;100.00;100221.36;1689288;84;21023;-64
2022/01/27 04:06:58;;;;;;;282.60;94.80;;;;;;;-5.37;100.00;100212.88;1689064;84;21074;-65
2022/01/27 04:09:24;;;;;;;134.70;49.23;;;;;;;-5.35;100.00;100211.23;1689370;84;21822;-65
2022/01/27 04:11:52;;;;;;;479.20;166.27;;;;;;;-5.33;100.00;100210.44;1690628;84;21045;-66
2022/01/27 04:14:19;;;;;;;241.17;81.67;;;;;;;-5.34;100.00;100203.55;1673098;84;21144;-65
2022/01/27 04:16:46;;;;;;;147.17;54.03;;;;;;;-5.32;100.00;100204.47;1670838;84;21129;-65
2022/01/27 04:19:12;;;;;;;143.00;51.50;;;;;;;-5.29;100.00;100212.28;1652484;86;21140;-65
2022/01/27 04:21:39;;;;;;;146.30;52.73;;;;;;;-5.31;100.00;100203.66;1670920;85;21140;-66
2022/01/27 04:24:06;;;;;;;134.27;48.60;;;;;;;-5.33;100.00;100216.00;1673353;85;21080;-69
2022/01/27 04:26:41;;;;;;;122.57;44.03;;;;;;;-5.39;100.00;100210.26;1674549;84;21054;-68
2022/01/27 04:29:02;;;;;;;117.90;46.17;;;;;;;-5.43;100.00;100207.14;1673808;85;21628;-66
2022/01/27 04:31:29;;;;;;;151.83;54.73;;;;;;;-5.49;100.00;100204.42;1679979;85;21021;-67
2022/01/27 04:33:56;;;;;;;148.30;50.93;;;;;;;-5.56;100.00;100206.36;1688018;84;21187;-66
2022/01/27 04:36:31;;;;;;;135.50;51.03;;;;;;;-5.62;100.00;100198.47;1662975;85;21084;-65
2022/01/27 04:39:05;;;;;;;156.00;53.90;;;;;;;-5.72;100.00;100203.33;1669116;85;21104;-66
2022/01/27 04:43:57;;;;;;;225.87;73.33;;;;;;;-5.94;100.00;100212.52;1708562;83;21076;-66
2022/01/27 04:48:57;;;;;;;553.77;179.37;;;;;;;-6.14;100.00;100201.23;1688808;83;21087;-66
2022/01/27 04:51:23;;;;;;;651.47;227.30;;;;;;;-6.22;100.00;100196.27;1675579;84;21545;-65
2022/01/27 04:54:04;;;;;;;627.87;223.30;;;;;;;-6.44;100.00;100157.97;1688456;83;21036;-67
2022/01/27 04:56:27;;;;;;;253.63;86.50;;;;;;;-6.37;100.00;100177.87;1678647;84;21598;-65
2022/01/27 04:58:59;;;;;;;162.87;55.70;;;;;;;-6.46;100.00;100180.13;1685216;83;21156;-64
2022/01/27 05:01:29;;;;;;;115.10;44.67;;;;;;;-6.56;100.00;100178.94;1675130;84;21168;-64
2022/01/27 05:03:57;;;;;;;119.80;45.60;;;;;;;-6.61;100.00;100189.04;1704925;83;21056;-64
2022/01/27 05:06:18;;;;;;;153.80;57.23;;;;;;;-6.66;100.00;100188.02;1707355;83;21865;-63
2022/01/27 05:08:45;;;;;;;159.33;53.27;;;;;;;-6.70;100.00;100187.45;1688799;83;21187;-65
2022/01/27 05:11:23;;;;;;;120.80;43.03;;;;;;;-6.76;100.00;100184.70;1671929;84;21152;-63
2022/01/27 05:16:28;;;;;;;373.73;120.77;;;;;;;-6.82;100.00;100190.89;1686636;84;21061;-67
2022/01/27 05:18:56;;;;;;;452.40;158.07;;;;;;;-6.83;100.00;100191.70;1690045;84;21083;-64
2022/01/27 05:21:22;;;;;;;429.50;140.67;;;;;;;-6.84;100.00;100192.11;1690348;84;21155;-66
2022/01/27 05:23:49;;;;;;;173.00;63.40;;;;;;;-6.87;100.00;100196.28;1702673;83;21132;-65
2022/01/27 05:26:16;;;;;;;198.67;69.50;;;;;;;-6.93;100.00;100196.92;1673057;84;21547;-65
2022/01/27 05:28:42;;;;;;;268.17;88.57;;;;;;;-6.97;100.00;100196.34;1695625;83;21619;-65
2022/01/27 05:31:09;;;;;;;512.63;166.50;;;;;;;-7.03;100.00;100193.18;1666513;84;21087;-65
2022/01/27 05:33:35;;;;;;;466.67;148.73;;;;;;;-7.13;100.00;100197.53;1688708;83;21123;-65
2022/01/27 05:36:03;;;;;;;314.53;111.07;;;;;;;-7.18;100.00;100192.63;1674078;84;21095;-65
2022/01/27 05:38:30;;;;;;;153.17;57.30;;;;;;;-7.22;100.00;100193.37;1687796;84;21038;-65
2022/01/27 05:40:56;;;;;;;199.60;63.50;;;;;;;-7.29;100.00;100186.27;1688584;84;21050;-64
2022/01/27 05:43:22;;;;;;;208.57;72.07;;;;;;;-7.30;100.00;100183.26;1688505;84;21062;-65
2022/01/27 05:45:49;;;;;;;131.77;51.27;;;;;;;-7.31;100.00;100181.11;1688781;84;21093;-66
2022/01/27 05:48:16;;;;;;;193.20;64.10;;;;;;;-7.30;100.00;100184.53;1685266;84;21139;-65
2022/01/27 05:50:42;;;;;;;152.33;56.53;;;;;;;-7.28;100.00;100190.58;1706784;83;21017;-63
2022/01/27 05:53:11;;;;;;;133.97;51.97;;;;;;;-7.29;100.00;100193.94;1704661;83;21063;-69
2022/01/27 05:55:39;;;;;;;135.40;50.97;;;;;;;-7.27;100.00;100197.43;1701313;83;21072;-65
2022/01/27 05:58:05;;;;;;;118.03;47.27;;;;;;;-7.25;100.00;100191.55;1672048;85;21124;-64
2022/01/27 06:00:32;;;;;;;153.40;53.77;;;;;;;-7.27;100.00;100191.93;1692629;84;21085;-65
2022/01/27 06:02:59;;;;;;;411.97;128.13;;;;;;;-7.25;100.00;100200.50;1697068;83;21092;-66
2022/01/27 06:05:26;;;;;;;274.07;88.87;;;;;;;-7.29;100.00;100188.44;1692152;83;21647;-63
2022/01/27 06:07:53;;;;;;;161.00;59.10;;;;;;;-7.30;100.00;100188.38;1702844;83;21030;-62
2022/01/27 06:10:20;;;;;;;252.03;80.27;;;;;;;-7.32;100.00;100194.70;1695044;83;21137;-65
2022/01/27 06:12:53;;;;;;;181.73;62.53;;;;;;;-7.35;100.00;100192.05;1711407;83;21137;-64
2022/01/27 06:15:21;;;;;;;179.73;62.33;;;;;;;-7.37;100.00;100186.42;1709555;83;21132;-65
2022/01/27 06:17:48;;;;;;;269.00;89.43;;;;;;;-7.37;100.00;100181.30;1698667;83;21665;-63
2022/01/27 06:20:16;;;;;;;192.93;62.97;;;;;;;-7.34;100.00;100183.95;1690970;83;21360;-65
2022/01/27 06:22:43;;;;;;;188.13;63.83;;;;;;;-7.30;100.00;100180.70;1702126;83;21072;-64
2022/01/27 06:25:11;;;;;;;134.27;48.97;;;;;;;-7.21;100.00;100178.47;1677901;83;21122;-64
2022/01/27 06:27:37;;;;;;;108.07;41.87;;;;;;;-7.10;100.00;100168.19;1697765;83;21580;-64
2022/01/27 06:30:08;;;;;;;106.07;41.13;;;;;;;-6.98;100.00;100171.16;1700314;83;21129;-65
2022/01/27 06:32:34;;;;;;;99.60;35.00;;;;;;;-6.80;100.00;100168.36;1704753;83;21086;-65
2022/01/27 06:35:04;;;;;;;77.13;30.63;;;;;;;-6.48;100.00;100172.80;1698144;83;21074;-65
2022/01/27 06:37:32;;;;;;;75.57;29.55;;;;;;;-5.86;100.00;100165.28;1704389;83;21531;-65
2022/01/27 06:40:00;;;;;;;74.80;29.10;;;;;;;-5.25;100.00;100166.14;1698714;83;21175;-65
2022/01/27 06:42:27;;;;;;;61.93;26.47;;;;;;;-4.94;100.00;100152.00;1700335;83;21545;-65
2022/01/27 06:44:53;;;;;;;60.93;26.27;;;;;;;-4.76;100.00;100145.58;1685052;83;21096;-66
2022/01/27 06:47:20;;;;;;;136.77;46.40;;;;;;;-4.62;99.38;100140.39;1703130;83;21600;-65
2022/01/27 06:49:46;;;;;;;71.73;28.40;;;;;;;-4.57;97.11;100143.93;1693751;83;21149;-65
2022/01/27 06:52:13;;;;;;;96.67;36.00;;;;;;;-4.52;96.29;100147.90;1672404;83;21077;-64
2022/01/27 06:54:39;;;;;;;108.97;36.90;;;;;;;-4.51;94.53;100141.91;1711041;83;21089;-64
2022/01/27 06:57:06;;;;;;;128.42;43.83;;;;;;;-4.48;93.96;100148.43;1685538;83;21082;-63
2022/01/27 06:59:34;;;;;;;94.77;35.17;;;;;;;-4.48;93.54;100143.29;1699346;83;21077;-64
2022/01/27 07:02:02;;;;;;;133.97;42.33;;;;;;;-4.52;93.06;100143.61;1701356;83;21974;-64
2022/01/27 07:04:29;;;;;;;136.37;48.90;;;;;;;-4.58;92.95;100142.17;1698615;82;22182;-65
2022/01/27 07:06:56;;;;;;;104.93;39.50;;;;;;;-4.59;93.68;100140.45;1690895;83;21058;-65
2022/01/27 07:09:22;;;;;;;83.07;30.83;;;;;;;-4.54;94.23;100137.56;1699400;83;21097;-65
2022/01/27 07:11:49;;;;;;;78.03;30.10;;;;;;;-4.49;93.78;100135.11;1691219;83;21630;-64
2022/01/27 07:14:15;;;;;;;66.97;27.63;;;;;;;-4.48;93.89;100128.73;1698836;83;21503;-65
2022/01/27 07:16:45;;;;;;;84.73;29.03;;;;;;;-4.42;93.21;100127.98;1700898;83;21102;-66
2022/01/27 07:19:11;;;;;;;75.97;28.00;;;;;;;-4.43;93.33;100129.70;1687459;84;21487;-64
2022/01/27 07:21:38;;;;;;;76.00;29.57;;;;;;;-4.36;93.45;100125.99;1688047;84;21077;-63
2022/01/27 07:24:05;;;;;;;69.77;26.37;;;;;;;-4.29;93.52;100124.87;1686504;84;21069;-63
2022/01/27 07:26:32;;;;;;;63.77;25.50;;;;;;;-4.25;92.77;100126.69;1679239;84;22234;-65
2022/01/27 07:28:59;;;;;;;64.57;26.77;;;;;;;-4.20;93.01;100115.64;1673626;84;21107;-64
2022/01/27 07:31:25;;;;;;;65.30;25.05;;;;;;;-4.15;92.78;100121.33;1677991;84;21047;-66
2022/01/27 07:33:52;;;;;;;55.78;24.47;;;;;;;-4.07;93.95;100116.34;1733024;82;21038;-65
2022/01/27 07:36:19;;;;;;;79.20;31.10;;;;;;;-3.94;93.28;100109.77;1714797;82;21083;-65
2022/01/27 07:38:48;;;;;;;76.97;30.80;;;;;;;-3.83;93.95;100114.72;1712539;82;21296;-65
2022/01/27 07:41:14;;;;;;;139.17;48.17;;;;;;;-3.81;92.58;100113.91;1710882;82;22246;-65
2022/01/27 07:43:41;;;;;;;148.47;48.20;;;;;;;-3.77;92.92;100112.28;1714342;82;21108;-67
2022/01/27 07:46:11;;;;;;;108.97;42.67;;;;;;;-3.73;93.08;100107.63;1713398;82;21049;-66
2022/01/27 07:48:38;;;;;;;58.15;22.48;;;;;;;-3.65;93.45;100102.23;1724170;82;21120;-64
2022/01/27 07:51:07;;;;;;;116.57;42.25;;;;;;;-3.55;93.51;100093.40;1728310;82;21136;-65
2022/01/27 07:53:35;;;;;;;143.80;50.53;;;;;;;-3.47;93.41;100098.29;1724539;82;21522;-67
2022/01/27 07:56:03;;;;;;;70.22;28.60;;;;;;;-3.18;92.69;100091.94;1729249;82;21125;-66
2022/01/27 07:58:32;;;;;;;44.33;22.10;;;;;;;-2.69;90.00;100094.91;1714755;82;21140;-65
2022/01/27 08:00:58;;;;;;;60.65;27.37;;;;;;;-2.12;89.08;100090.16;1701267;82;21468;-65
2022/01/27 08:03:25;;;;;;;52.45;25.05;;;;;;;-1.44;86.30;100084.56;1708805;82;21932;-64
2022/01/27 08:05:52;;;;;;;50.75;23.92;;;;;;;-0.65;83.17;100086.57;1725943;82;21034;-65
2022/01/27 08:08:20;;;;;;;64.40;22.48;;;;;;;-0.06;80.45;100084.38;1719966;82;21467;-64
2022/01/27 08:10:48;;;;;;;52.58;22.95;;;;;;;0.33;78.71;100083.70;1721779;82;21624;-64
2022/01/27 08:13:16;;;;;;;53.60;21.97;;;;;;;0.50;74.86;100083.74;1713575;82;21608;-65
2022/01/27 08:15:46;;;;;;;51.88;22.85;;;;;;;0.47;74.48;100073.38;1724430;82;22011;-65
2022/01/27 08:18:12;;;;;;;41.90;19.32;;;;;;;0.25;75.04;100080.20;1719272;82;21064;-66
2022/01/27 08:20:40;;;;;;;47.45;20.05;;;;;;;-0.05;74.57;100073.16;1725387;82;21072;-66
2022/01/27 08:23:07;;;;;;;51.37;21.65;;;;;;;-0.20;76.72;100066.19;1723563;82;21053;-66
2022/01/27 08:25:34;;;;;;;57.93;22.35;;;;;;;-0.31;77.46;100073.02;1717522;82;21577;-65
2022/01/27 08:28:05;;;;;;;69.65;27.85;;;;;;;-0.53;77.60;100064.23;1714893;82;21524;-65
2022/01/27 08:30:37;;;;;;;47.83;20.92;;;;;;;-0.75;79.98;100065.38;1719323;82;21114;-65
2022/01/27 08:33:04;;;;;;;82.25;32.95;;;;;;;-0.87;80.30;100067.88;1713746;82;21439;-65
2022/01/27 08:35:27;;;;;;;58.92;22.07;;;;;;;-1.00;81.37;100065.61;1720275;82;21053;-65
2022/01/27 08:37:54;;;;;;;63.52;27.02;;;;;;;-1.19;81.88;100069.75;1709367;82;21137;-65
2022/01/27 08:40:21;;;;;;;55.65;25.55;;;;;;;-1.39;82.70;100059.20;1726163;82;22221;-65
2022/01/27 08:42:47;;;;;;;44.83;18.52;;;;;;;-1.59;83.92;100052.52;1717713;82;21164;-65
2022/01/27 08:45:16;;;;;;;44.13;18.82;;;;;;;-1.66;85.69;100054.59;1723483;82;21053;-65
2022/01/27 08:47:46;;;;;;;41.13;18.85;;;;;;;-1.75;86.03;100048.93;1718958;82;21061;-64
2022/01/27 08:50:14;;;;;;;42.73;18.95;;;;;;;-1.80;87.04;100049.70;1728096;82;21018;-66
2022/01/27 08:52:42;;;;;;;46.05;17.87;;;;;;;-1.87;88.12;100049.20;1716210;82;21555;-65
2022/01/27 08:55:10;;;;;;;39.55;15.80;;;;;;;-1.83;88.87;100049.25;1726724;82;21586;-64
2022/01/27 08:57:37;;;;;;;44.90;17.23;;;;;;;-1.79;88.76;100039.84;1718879;82;21605;-66
2022/01/27 09:00:09;;;;;;;35.80;15.40;;;;;;;-1.71;89.64;100040.78;1714889;82;21082;-64
2022/01/27 09:02:36;;;;;;;39.10;16.85;;;;;;;-1.57;89.06;100036.63;1724032;82;21623;-64
2022/01/27 09:05:05;;;;;;;66.55;27.42;;;;;;;-1.48;88.98;100038.01;1723709;82;21499;-65
2022/01/27 09:07:34;;;;;;;38.53;18.17;;;;;;;-1.38;89.59;100040.28;1719889;82;22091;-64
2022/01/27 09:10:02;;;;;;;72.62;31.97;;;;;;;-1.24;88.97;100034.36;1713467;82;21077;-65
2022/01/27 09:12:29;;;;;;;54.53;24.77;;;;;;;-1.20;88.42;100026.65;1723205;82;21065;-63
2022/01/27 09:14:59;;;;;;;107.12;41.25;;;;;;;-1.16;88.24;100031.00;1711807;82;21213;-64
2022/01/27 09:17:27;;;;;;;130.67;50.75;;;;;;;-1.18;88.90;100024.09;1714211;81;21066;-64
2022/01/27 09:19:54;;;;;;;98.65;41.58;;;;;;;-1.19;89.60;100027.11;1715470;82;21054;-65
2022/01/27 09:22:22;;;;;;;98.58;40.48;;;;;;;-1.12;89.24;100019.84;1710511;82;21057;-65
2022/01/27 09:24:57;;;;;;;68.00;26.25;;;;;;;-1.04;89.31;100010.84;1723200;82;21046;-64
2022/01/27 09:27:20;;;;;;;48.58;20.52;;;;;;;-0.96;88.83;100010.50;1706690;82;21077;-65
2022/01/27 09:29:48;;;;;;;59.50;22.35;;;;;;;-0.95;87.46;100007.48;1722218;82;21131;-69
2022/01/27 09:32:16;;;;;;;51.70;23.95;;;;;;;-0.92;87.97;99995.45;1718710;82;21050;-68
2022/01/27 09:34:43;;;;;;;47.98;20.15;;;;;;;-0.90;87.58;99993.75;1705719;82;21058;-67
2022/01/27 09:37:10;;;;;;;47.27;22.13;;;;;;;-0.89;87.59;99998.48;1714769;82;21042;-66
2022/01/27 09:39:39;;;;;;;42.58;19.17;;;;;;;-0.80;88.32;100002.43;1707992;82;21097;-67
2022/01/27 09:42:08;;;;;;;40.63;19.67;;;;;;;-0.65;88.47;99999.06;1701192;82;21113;-66
2022/01/27 09:44:36;;;;;;;58.30;24.98;;;;;;;-0.49;88.00;99997.00;1721812;82;21054;-67
2022/01/27 09:47:11;;;;;;;45.48;20.72;;;;;;;-0.44;89.03;99991.86;1715218;82;21107;-66
2022/01/27 09:49:43;;;;;;;61.53;23.18;;;;;;;-0.49;88.77;100007.35;1716632;82;21571;-68
2022/01/27 09:52:08;;;;;;;52.53;22.87;;;;;;;-0.73;89.84;99978.34;1716777;82;21583;-67
2022/01/27 09:54:35;;;;;;;93.97;35.63;;;;;;;-0.71;90.22;99996.03;1718561;82;21361;-66
2022/01/27 09:57:03;;;;;;;59.85;24.85;;;;;;;-0.89;92.31;99992.02;1721552;82;21340;-66
2022/01/27 09:59:30;;;;;;;60.05;25.20;;;;;;;-0.98;94.03;99991.52;1718144;82;21109;-67
2022/01/27 10:02:05;;;;;;;45.20;19.73;;;;;;;-1.08;94.52;99989.30;1715202;82;21074;-67
2022/01/27 10:04:53;;;;;;;48.58;21.68;;;;;;;-1.14;94.68;99982.78;1719035;82;21031;-67
2022/01/27 10:07:33;;;;;;;42.50;19.40;;;;;;;-1.16;96.05;99985.78;1711492;82;21794;-67
2022/01/27 10:10:16;;;;;;;49.30;20.30;;;;;;;-1.13;96.21;99984.53;1708071;82;21474;-66
2022/01/27 10:12:49;;;;;;;57.80;25.88;;;;;;;-1.20;96.55;99977.55;1713430;82;22271;-67
2022/01/27 10:15:20;;;;;;;66.42;27.42;;;;;;;-1.23;96.97;99974.95;1698082;82;21161;-68
2022/01/27 10:18:17;;;;;;;87.27;35.65;;;;;;;-1.28;97.43;99966.30;1728127;81;21030;-69
2022/01/27 10:21:08;;;;;;;61.83;28.47;;;;;;;-1.28;97.78;99963.72;1732940;82;22156;-69
2022/01/27 10:23:39;;;;;;;50.60;23.38;;;;;;;-1.32;97.70;99965.40;1730574;81;26652;-67
2022/01/27 10:26:14;;;;;;;;;;;;;;;-1.36;97.51;99957.61;1712470;82;21058;-68
2022/01/27 10:28:47;;;;;;;48.10;21.05;;;;;;;-1.41;98.32;99965.32;1711614;82;20225;-69
2022/01/27 10:31:23;;;;;;;46.70;21.25;;;;;;;-1.43;98.35;99961.85;1709239;82;21058;-69
2022/01/27 10:34:05;;;;;;;53.95;24.18;;;;;;;-1.45;98.49;99953.66;1706488;82;21749;-66
2022/01/27 10:36:40;;;;;;;;;;;;;;;-1.44;99.03;99948.95;1726305;82;21596;-66
2022/01/27 10:39:13;;;;;;;45.28;21.52;;;;;;;-1.38;100.00;99946.39;1709229;82;20198;-64
2022/01/27 10:42:05;;;;;;;49.63;22.07;;;;;;;-1.37;100.00;99942.98;1713961;82;21057;-64
2022/01/27 10:44:46;;;;;;;51.90;23.52;;;;;;;-1.36;100.00;99934.36;1719881;82;21077;-65
2022/01/27 10:47:19;;;;;;;65.05;25.08;;;;;;;-1.41;100.00;99932.17;1719655;82;21038;-65
2022/01/27 10:49:49;;;;;;;56.08;22.98;;;;;;;-1.41;100.00;99928.30;1704478;81;21098;-64
2022/01/27 10:52:36;;;;;;;61.77;25.62;;;;;;;-1.44;100.00;99923.12;1713392;82;21991;-65
2022/01/27 10:55:00;;;;;;;89.47;36.90;;;;;;;-1.42;100.00;99917.11;1694760;82;21070;-64
2022/01/27 10:57:27;;;;;;;94.22;38.92;;;;;;;-1.42;100.00;99922.27;1717802;82;21045;-65
2022/01/27 11:00:14;;;;;;;69.32;27.25;;;;;;;-1.39;100.00;99917.55;1724940;82;21137;-65
2022/01/27 11:03:01;;;;;;;87.47;35.13;;;;;;;-1.36;100.00;99921.45;1720466;82;21102;-65
2022/01/27 11:05:31;;;;;;;63.50;26.52;;;;;;;-1.45;100.00;99918.35;1715960;82;21057;-64
2022/01/27 11:07:58;;;;;;;74.03;27.70;;;;;;;-1.50;100.00;99917.02;1714271;82;21597;-65
2022/01/27 11:10:25;;;;;;;78.95;29.18;;;;;;;-1.50;100.00;99917.02;1705075;82;21041;-65
2022/01/27 11:12:53;;;;;;;65.17;28.50;;;;;;;-1.49;100.00;99916.19;1716434;82;21127;-65
2022/01/27 11:15:20;;;;;;;52.08;22.48;;;;;;;-1.48;100.00;99911.88;1723103;82;21153;-65
2022/01/27 11:17:47;;;;;;;53.23;22.98;;;;;;;-1.52;100.00;99916.17;1718776;82;21082;-65
2022/01/27 11:20:27;;;;;;;69.80;27.60;;;;;;;-1.57;100.00;99915.67;1711286;82;21312;-65
2022/01/27 11:23:11;;;;;;;70.45;31.35;;;;;;;-1.59;100.00;99910.48;1716286;82;21039;-66
2022/01/27 11:28:02;;;;;;;113.83;45.78;;;;;;;-1.69;100.00;99906.11;1723353;82;21065;-65
2022/01/27 11:32:46;;;;;;;85.37;32.27;;;;;;;-1.80;100.00;99898.69;1770900;78;22799;-64
2022/01/27 11:35:21;;;;;;;68.22;28.52;;;;;;;-1.80;100.00;99898.69;1734810;81;21587;-65
2022/01/27 11:37:50;;;;;;;76.42;31.93;;;;;;;-1.93;100.00;99902.45;1741041;81;21143;-64
2022/01/27 11:40:20;;;;;;;69.07;29.72;;;;;;;-1.98;100.00;99892.52;1729228;80;20978;-64
2022/01/27 11:43:02;;;;;;;66.90;29.72;;;;;;;-2.00;100.00;99894.22;1755621;80;21525;-65
2022/01/27 11:45:43;;;;;;;54.45;25.97;;;;;;;-2.02;100.00;99898.49;1751227;80;20966;-64
2022/01/27 11:48:15;;;;;;;53.80;26.50;;;;;;;-2.03;100.00;99890.30;1736657;80;21076;-65
2022/01/27 11:50:50;;;;;;;75.75;31.20;;;;;;;-2.06;100.00;99888.98;1745740;80;21160;-64
2022/01/27 11:53:40;;;;;;;85.40;35.63;;;;;;;-2.08;100.00;99893.25;1742459;80;21557;-65
2022/01/27 11:56:27;;;;;;;73.55;32.20;;;;;;;-2.07;100.00;99896.70;1741551;80;21105;-65
2022/01/27 11:58:56;;;;;;;61.18;27.45;;;;;;;-2.11;100.00;99886.78;1736777;81;21076;-64